sensor_id;sensor_type;location;lat;lon;timestamp;temperature;humidity
6098;DHT22;3077;50.922;6.584;2023-11-18T00:01:08;6.10;99.90
6098;DHT22;3077;50.922;6.584;2023-11-18T00:03:34;6.00;99.90
6098;DHT22;3077;50.922;6.584;2023-11-18T00:06:00;6.00;99.90
6098;DHT22;3077;50.922;6.584;2023-11-18T00:08:25;6.10;99.90
6098;DHT22;3077;50.922;6.584;2023-11-18T00:10:51;6.00;99.90
6098;DHT22;3077;50.922;6.584;2023-11-18T00:13:16;6.00;99.90
6098;DHT22;3077;50.922;6.584;2023-11-18T00:15:42;6.00;99.90
6098;DHT22;3077;50.922;6.584;2023-11-18T00:18:11;6.00;99.90
6098;DHT22;3077;50.922;6.584;2023-11-18T00:20:37;6.00;99.90
6098;DHT22;3077;50.922;6.584;2023-11-18T00:23:02;5.90;99.90
6098;DHT22;3077;50.922;6.584;2023-11-18T00:25:30;6.00;99.90
6098;DHT22;3077;50.922;6.584;2023-11-18T00:27:55;6.10;99.90
6098;DHT22;3077;50.922;6.584;2023-11-18T00:30:21;6.30;99.90
6098;DHT22;3077;50.922;6.584;2023-11-18T00:32:47;6.10;99.90
6098;DHT22;3077;50.922;6.584;2023-11-18T00:35:13;6.10;99.90
6098;DHT22;3077;50.922;6.584;2023-11-18T00:37:40;6.10;99.90
6098;DHT22;3077;50.922;6.584;2023-11-18T00:40:07;6.20;99.90
6098;DHT22;3077;50.922;6.584;2023-11-18T00:42:33;6.20;99.90
6098;DHT22;3077;50.922;6.584;2023-11-18T00:44:59;6.10;99.90
6098;DHT22;3077;50.922;6.584;2023-11-18T00:47:24;6.10;99.90
6098;DHT22;3077;50.922;6.584;2023-11-18T00:49:50;6.10;99.90
6098;DHT22;3077;50.922;6.584;2023-11-18T00:52:17;6.10;99.90
6098;DHT22;3077;50.922;6.584;2023-11-18T00:54:44;6.10;99.90
6098;DHT22;3077;50.922;6.584;2023-11-18T00:57:09;6.10;99.90
6098;DHT22;3077;50.922;6.584;2023-11-18T00:59:35;6.10;99.90
6098;DHT22;3077;50.922;6.584;2023-11-18T01:02:00;6.20;99.90
6098;DHT22;3077;50.922;6.584;2023-11-18T01:04:28;6.10;99.90
6098;DHT22;3077;50.922;6.584;2023-11-18T01:06:54;6.20;99.90
6098;DHT22;3077;50.922;6.584;2023-11-18T01:09:19;7.10;99.90
6098;DHT22;3077;50.922;6.584;2023-11-18T01:11:45;6.10;99.90
6098;DHT22;3077;50.922;6.584;2023-11-18T01:14:11;6.10;99.90
6098;DHT22;3077;50.922;6.584;2023-11-18T01:16:37;6.10;99.90
6098;DHT22;3077;50.922;6.584;2023-11-18T01:19:03;6.20;99.90
6098;DHT22;3077;50.922;6.584;2023-11-18T01:21:28;6.10;99.90
6098;DHT22;3077;50.922;6.584;2023-11-18T01:23:54;6.10;99.90
6098;DHT22;3077;50.922;6.584;2023-11-18T01:26:20;6.10;99.90
6098;DHT22;3077;50.922;6.584;2023-11-18T01:28:47;6.10;99.90
6098;DHT22;3077;50.922;6.584;2023-11-18T01:31:12;6.60;99.90
6098;DHT22;3077;50.922;6.584;2023-11-18T01:33:39;6.00;99.90
6098;DHT22;3077;50.922;6.584;2023-11-18T01:36:10;5.90;84.00
6098;DHT22;3077;50.922;6.584;2023-11-18T01:38:36;5.90;91.20
6098;DHT22;3077;50.922;6.584;2023-11-18T01:41:06;5.90;82.50
6098;DHT22;3077;50.922;6.584;2023-11-18T01:43:32;5.90;99.90
6098;DHT22;3077;50.922;6.584;2023-11-18T01:46:03;5.70;80.30
6098;DHT22;3077;50.922;6.584;2023-11-18T01:48:29;5.70;99.90
6098;DHT22;3077;50.922;6.584;2023-11-18T01:50:57;5.70;99.90
6098;DHT22;3077;50.922;6.584;2023-11-18T01:53:26;5.50;99.90
6098;DHT22;3077;50.922;6.584;2023-11-18T01:55:53;5.60;99.90
6098;DHT22;3077;50.922;6.584;2023-11-18T01:58:20;5.60;99.90
6098;DHT22;3077;50.922;6.584;2023-11-18T02:00:48;5.60;99.90
6098;DHT22;3077;50.922;6.584;2023-11-18T02:03:16;5.60;99.90
6098;DHT22;3077;50.922;6.584;2023-11-18T02:05:42;5.60;99.90
6098;DHT22;3077;50.922;6.584;2023-11-18T02:08:09;5.60;99.90
6098;DHT22;3077;50.922;6.584;2023-11-18T02:13:24;5.60;99.90
6098;DHT22;3077;50.922;6.584;2023-11-18T02:15:53;5.60;99.90
6098;DHT22;3077;50.922;6.584;2023-11-18T02:18:20;5.60;99.90
6098;DHT22;3077;50.922;6.584;2023-11-18T02:20:47;5.60;99.90
6098;DHT22;3077;50.922;6.584;2023-11-18T02:23:14;5.60;99.90
6098;DHT22;3077;50.922;6.584;2023-11-18T02:25:47;5.60;99.90
6098;DHT22;3077;50.922;6.584;2023-11-18T02:28:13;5.60;99.90
6098;DHT22;3077;50.922;6.584;2023-11-18T02:30:40;5.60;99.90
6098;DHT22;3077;50.922;6.584;2023-11-18T02:33:18;5.60;99.90
6098;DHT22;3077;50.922;6.584;2023-11-18T02:35:52;5.60;99.90
6098;DHT22;3077;50.922;6.584;2023-11-18T02:38:22;5.60;99.90
6098;DHT22;3077;50.922;6.584;2023-11-18T02:40:52;5.60;99.90
6098;DHT22;3077;50.922;6.584;2023-11-18T02:43:18;5.50;99.90
6098;DHT22;3077;50.922;6.584;2023-11-18T02:45:45;5.50;99.90
6098;DHT22;3077;50.922;6.584;2023-11-18T02:48:12;5.50;99.90
6098;DHT22;3077;50.922;6.584;2023-11-18T02:50:38;5.40;99.90
6098;DHT22;3077;50.922;6.584;2023-11-18T02:53:06;5.40;99.90
6098;DHT22;3077;50.922;6.584;2023-11-18T02:55:35;5.40;99.90
6098;DHT22;3077;50.922;6.584;2023-11-18T02:58:01;5.20;99.90
6098;DHT22;3077;50.922;6.584;2023-11-18T03:00:27;5.40;99.90
6098;DHT22;3077;50.922;6.584;2023-11-18T03:02:54;5.40;99.90
6098;DHT22;3077;50.922;6.584;2023-11-18T03:05:20;5.50;99.90
6098;DHT22;3077;50.922;6.584;2023-11-18T03:07:47;5.50;99.90
6098;DHT22;3077;50.922;6.584;2023-11-18T03:10:18;5.50;99.90
6098;DHT22;3077;50.922;6.584;2023-11-18T03:12:48;5.50;99.90
6098;DHT22;3077;50.922;6.584;2023-11-18T03:15:14;5.50;99.90
6098;DHT22;3077;50.922;6.584;2023-11-18T03:17:43;5.50;99.90
6098;DHT22;3077;50.922;6.584;2023-11-18T03:20:10;5.40;99.90
6098;DHT22;3077;50.922;6.584;2023-11-18T03:22:37;5.50;99.90
6098;DHT22;3077;50.922;6.584;2023-11-18T03:25:02;5.50;99.90
6098;DHT22;3077;50.922;6.584;2023-11-18T03:27:30;5.40;99.90
6098;DHT22;3077;50.922;6.584;2023-11-18T03:29:55;5.60;99.90
6098;DHT22;3077;50.922;6.584;2023-11-18T03:32:21;5.40;99.90
6098;DHT22;3077;50.922;6.584;2023-11-18T03:34:46;5.40;99.90
6098;DHT22;3077;50.922;6.584;2023-11-18T03:37:12;5.40;99.90
6098;DHT22;3077;50.922;6.584;2023-11-18T03:39:38;5.30;99.90
6098;DHT22;3077;50.922;6.584;2023-11-18T03:42:03;5.30;99.90
6098;DHT22;3077;50.922;6.584;2023-11-18T03:44:29;5.30;99.90
6098;DHT22;3077;50.922;6.584;2023-11-18T03:46:55;5.20;99.90
6098;DHT22;3077;50.922;6.584;2023-11-18T03:49:20;5.20;99.90
6098;DHT22;3077;50.922;6.584;2023-11-18T03:51:46;6.40;99.90
6098;DHT22;3077;50.922;6.584;2023-11-18T03:54:12;5.10;99.90
6098;DHT22;3077;50.922;6.584;2023-11-18T03:56:39;5.10;99.90
6098;DHT22;3077;50.922;6.584;2023-11-18T03:59:04;5.20;99.90
6098;DHT22;3077;50.922;6.584;2023-11-18T04:01:30;6.70;99.90
6098;DHT22;3077;50.922;6.584;2023-11-18T04:03:56;5.10;99.90
6098;DHT22;3077;50.922;6.584;2023-11-18T04:06:22;5.10;99.90
6098;DHT22;3077;50.922;6.584;2023-11-18T04:08:50;5.10;99.90
6098;DHT22;3077;50.922;6.584;2023-11-18T04:11:16;5.10;99.90
6098;DHT22;3077;50.922;6.584;2023-11-18T04:13:42;5.20;99.90
6098;DHT22;3077;50.922;6.584;2023-11-18T04:16:14;5.10;99.90
6098;DHT22;3077;50.922;6.584;2023-11-18T04:18:42;5.20;99.90
6098;DHT22;3077;50.922;6.584;2023-11-18T04:21:08;5.20;99.90
6098;DHT22;3077;50.922;6.584;2023-11-18T04:23:37;5.10;99.90
6098;DHT22;3077;50.922;6.584;2023-11-18T04:26:07;6.30;99.90
6098;DHT22;3077;50.922;6.584;2023-11-18T04:28:36;5.30;99.90
6098;DHT22;3077;50.922;6.584;2023-11-18T04:31:03;5.30;99.90
6098;DHT22;3077;50.922;6.584;2023-11-18T04:33:30;5.30;99.90
6098;DHT22;3077;50.922;6.584;2023-11-18T04:35:56;5.20;99.90
6098;DHT22;3077;50.922;6.584;2023-11-18T04:38:25;5.20;99.90
6098;DHT22;3077;50.922;6.584;2023-11-18T04:40:54;5.20;99.90
6098;DHT22;3077;50.922;6.584;2023-11-18T04:43:21;5.20;99.90
6098;DHT22;3077;50.922;6.584;2023-11-18T04:45:47;5.20;99.90
6098;DHT22;3077;50.922;6.584;2023-11-18T04:48:14;5.30;99.90
6098;DHT22;3077;50.922;6.584;2023-11-18T04:50:42;5.40;99.90
6098;DHT22;3077;50.922;6.584;2023-11-18T04:53:08;5.40;99.90
6098;DHT22;3077;50.922;6.584;2023-11-18T04:55:36;6.20;99.90
6098;DHT22;3077;50.922;6.584;2023-11-18T05:00:28;5.40;99.90
6098;DHT22;3077;50.922;6.584;2023-11-18T05:02:54;7.70;99.90
6098;DHT22;3077;50.922;6.584;2023-11-18T05:15:07;5.40;99.90
6098;DHT22;3077;50.922;6.584;2023-11-18T05:17:36;5.40;99.90
6098;DHT22;3077;50.922;6.584;2023-11-18T05:20:06;5.50;99.90
6098;DHT22;3077;50.922;6.584;2023-11-18T05:22:36;5.50;99.90
6098;DHT22;3077;50.922;6.584;2023-11-18T05:25:03;5.50;99.90
6098;DHT22;3077;50.922;6.584;2023-11-18T05:27:32;5.50;99.90
6098;DHT22;3077;50.922;6.584;2023-11-18T05:29:58;5.60;99.90
6098;DHT22;3077;50.922;6.584;2023-11-18T05:32:29;7.80;99.90
6098;DHT22;3077;50.922;6.584;2023-11-18T05:37:42;5.70;99.90
6098;DHT22;3077;50.922;6.584;2023-11-18T05:40:10;5.70;99.90
6098;DHT22;3077;50.922;6.584;2023-11-18T05:42:40;5.70;99.90
6098;DHT22;3077;50.922;6.584;2023-11-18T05:45:08;5.70;99.90
6098;DHT22;3077;50.922;6.584;2023-11-18T05:47:42;5.70;99.90
6098;DHT22;3077;50.922;6.584;2023-11-18T05:50:08;8.20;99.90
6098;DHT22;3077;50.922;6.584;2023-11-18T05:55:01;5.80;99.90
6098;DHT22;3077;50.922;6.584;2023-11-18T06:02:23;5.90;99.90
6098;DHT22;3077;50.922;6.584;2023-11-18T06:04:52;5.90;99.90
6098;DHT22;3077;50.922;6.584;2023-11-18T06:07:17;5.90;99.90
6098;DHT22;3077;50.922;6.584;2023-11-18T06:12:19;5.90;99.90
6098;DHT22;3077;50.922;6.584;2023-11-18T06:19:40;5.90;99.90
6098;DHT22;3077;50.922;6.584;2023-11-18T06:22:21;6.00;99.90
6098;DHT22;3077;50.922;6.584;2023-11-18T06:27:12;6.00;99.90
6098;DHT22;3077;50.922;6.584;2023-11-18T06:32:11;6.00;99.90
6098;DHT22;3077;50.922;6.584;2023-11-18T06:37:05;6.00;99.90
6098;DHT22;3077;50.922;6.584;2023-11-18T06:39:41;6.00;99.90
6098;DHT22;3077;50.922;6.584;2023-11-18T06:42:06;6.00;99.90
6098;DHT22;3077;50.922;6.584;2023-11-18T06:44:40;6.00;99.90
6098;DHT22;3077;50.922;6.584;2023-11-18T06:49:33;6.10;99.90
6098;DHT22;3077;50.922;6.584;2023-11-18T06:52:02;6.00;99.90
6098;DHT22;3077;50.922;6.584;2023-11-18T06:54:29;6.10;99.90
6098;DHT22;3077;50.922;6.584;2023-11-18T06:56:57;6.10;99.90
6098;DHT22;3077;50.922;6.584;2023-11-18T07:01:49;6.10;99.90
6098;DHT22;3077;50.922;6.584;2023-11-18T07:06:41;6.10;99.90
6098;DHT22;3077;50.922;6.584;2023-11-18T07:09:07;7.30;99.90
6098;DHT22;3077;50.922;6.584;2023-11-18T07:11:43;6.50;99.90
6098;DHT22;3077;50.922;6.584;2023-11-18T07:14:09;7.80;99.90
6098;DHT22;3077;50.922;6.584;2023-11-18T07:16:40;6.20;99.90
6098;DHT22;3077;50.922;6.584;2023-11-18T07:21:33;6.20;99.90
6098;DHT22;3077;50.922;6.584;2023-11-18T07:26:25;6.20;99.90
6098;DHT22;3077;50.922;6.584;2023-11-18T07:28:51;6.30;99.90
6098;DHT22;3077;50.922;6.584;2023-11-18T07:31:17;6.30;99.90
6098;DHT22;3077;50.922;6.584;2023-11-18T07:33:44;6.30;99.90
6098;DHT22;3077;50.922;6.584;2023-11-18T07:36:17;6.80;99.90
6098;DHT22;3077;50.922;6.584;2023-11-18T07:38:48;6.40;99.90
6098;DHT22;3077;50.922;6.584;2023-11-18T07:41:15;6.40;99.90
6098;DHT22;3077;50.922;6.584;2023-11-18T07:43:52;6.40;99.90
6098;DHT22;3077;50.922;6.584;2023-11-18T07:46:20;6.40;99.90
6098;DHT22;3077;50.922;6.584;2023-11-18T07:48:48;6.40;99.90
6098;DHT22;3077;50.922;6.584;2023-11-18T07:51:14;6.50;99.90
6098;DHT22;3077;50.922;6.584;2023-11-18T07:53:40;6.30;99.90
6098;DHT22;3077;50.922;6.584;2023-11-18T07:56:06;6.50;99.90
6098;DHT22;3077;50.922;6.584;2023-11-18T07:58:33;6.50;99.90
6098;DHT22;3077;50.922;6.584;2023-11-18T08:01:03;6.60;99.90
6098;DHT22;3077;50.922;6.584;2023-11-18T08:03:29;6.40;99.90
6098;DHT22;3077;50.922;6.584;2023-11-18T08:05:56;6.60;99.90
6098;DHT22;3077;50.922;6.584;2023-11-18T08:08:23;6.70;99.90
6098;DHT22;3077;50.922;6.584;2023-11-18T08:10:49;6.70;99.90
6098;DHT22;3077;50.922;6.584;2023-11-18T08:13:15;6.80;99.90
6098;DHT22;3077;50.922;6.584;2023-11-18T08:15:43;6.80;99.90
6098;DHT22;3077;50.922;6.584;2023-11-18T08:18:11;6.80;99.90
6098;DHT22;3077;50.922;6.584;2023-11-18T08:20:37;6.70;99.90
6098;DHT22;3077;50.922;6.584;2023-11-18T08:23:04;6.80;99.90
6098;DHT22;3077;50.922;6.584;2023-11-18T08:25:33;6.90;99.90
6098;DHT22;3077;50.922;6.584;2023-11-18T08:28:00;6.90;99.90
6098;DHT22;3077;50.922;6.584;2023-11-18T08:30:26;7.00;99.90
6098;DHT22;3077;50.922;6.584;2023-11-18T08:32:54;7.00;99.90
6098;DHT22;3077;50.922;6.584;2023-11-18T08:35:20;7.10;99.90
6098;DHT22;3077;50.922;6.584;2023-11-18T08:40:14;7.10;99.90
6098;DHT22;3077;50.922;6.584;2023-11-18T08:42:57;8.90;99.90
6098;DHT22;3077;50.922;6.584;2023-11-18T08:45:27;7.10;99.90
6098;DHT22;3077;50.922;6.584;2023-11-18T08:47:59;7.20;99.90
6098;DHT22;3077;50.922;6.584;2023-11-18T08:52:58;7.20;99.90
6098;DHT22;3077;50.922;6.584;2023-11-18T08:55:28;9.40;99.90
6098;DHT22;3077;50.922;6.584;2023-11-18T08:58:29;9.30;99.90
6098;DHT22;3077;50.922;6.584;2023-11-18T09:01:00;7.30;99.90
6098;DHT22;3077;50.922;6.584;2023-11-18T09:03:38;7.30;99.90
6098;DHT22;3077;50.922;6.584;2023-11-18T09:06:09;7.40;99.90
6098;DHT22;3077;50.922;6.584;2023-11-18T09:08:51;8.90;99.90
6098;DHT22;3077;50.922;6.584;2023-11-18T09:11:21;9.30;99.90
6098;DHT22;3077;50.922;6.584;2023-11-18T09:13:49;8.50;99.90
6098;DHT22;3077;50.922;6.584;2023-11-18T09:16:19;9.10;99.90
6098;DHT22;3077;50.922;6.584;2023-11-18T09:18:48;7.60;99.90
6098;DHT22;3077;50.922;6.584;2023-11-18T09:23:41;7.60;99.90
6098;DHT22;3077;50.922;6.584;2023-11-18T09:26:31;7.90;99.90
6098;DHT22;3077;50.922;6.584;2023-11-18T09:33:03;9.10;99.90
6098;DHT22;3077;50.922;6.584;2023-11-18T09:38:01;7.90;99.90
6098;DHT22;3077;50.922;6.584;2023-11-18T09:40:32;7.90;99.90
6098;DHT22;3077;50.922;6.584;2023-11-18T09:43:03;9.70;99.90
6098;DHT22;3077;50.922;6.584;2023-11-18T09:45:34;8.10;99.90
6098;DHT22;3077;50.922;6.584;2023-11-18T09:48:01;8.20;99.90
6098;DHT22;3077;50.922;6.584;2023-11-18T09:50:33;8.00;99.90
6098;DHT22;3077;50.922;6.584;2023-11-18T09:53:07;8.10;99.90
6098;DHT22;3077;50.922;6.584;2023-11-18T09:55:45;8.20;99.90
6098;DHT22;3077;50.922;6.584;2023-11-18T09:58:18;8.30;99.90
6098;DHT22;3077;50.922;6.584;2023-11-18T10:00:50;8.20;99.90
6098;DHT22;3077;50.922;6.584;2023-11-18T10:03:21;8.20;99.90
6098;DHT22;3077;50.922;6.584;2023-11-18T10:05:49;8.20;99.90
6098;DHT22;3077;50.922;6.584;2023-11-18T10:08:18;8.30;99.90
6098;DHT22;3077;50.922;6.584;2023-11-18T10:10:49;8.30;99.90
6098;DHT22;3077;50.922;6.584;2023-11-18T10:13:15;8.50;98.30
6098;DHT22;3077;50.922;6.584;2023-11-18T10:15:50;8.40;96.70
6098;DHT22;3077;50.922;6.584;2023-11-18T10:18:18;8.40;73.60
6098;DHT22;3077;50.922;6.584;2023-11-18T10:20:49;8.40;70.30
6098;DHT22;3077;50.922;6.584;2023-11-18T10:23:20;8.50;53.60
6098;DHT22;3077;50.922;6.584;2023-11-18T10:30:48;8.50;39.00
6098;DHT22;3077;50.922;6.584;2023-11-18T10:33:20;8.50;38.20
6098;DHT22;3077;50.922;6.584;2023-11-18T10:35:52;8.50;35.80
6098;DHT22;3077;50.922;6.584;2023-11-18T10:38:21;8.60;41.00
6098;DHT22;3077;50.922;6.584;2023-11-18T10:40:53;8.60;38.90
6098;DHT22;3077;50.922;6.584;2023-11-18T10:43:23;8.50;41.90
6098;DHT22;3077;50.922;6.584;2023-11-18T10:46:15;8.50;43.10
6098;DHT22;3077;50.922;6.584;2023-11-18T10:51:09;8.40;54.50
6098;DHT22;3077;50.922;6.584;2023-11-18T10:53:36;8.50;78.70
6098;DHT22;3077;50.922;6.584;2023-11-18T10:56:08;8.50;45.20
6098;DHT22;3077;50.922;6.584;2023-11-18T10:58:41;8.50;51.90
6098;DHT22;3077;50.922;6.584;2023-11-18T11:01:07;8.50;75.60
6098;DHT22;3077;50.922;6.584;2023-11-18T11:03:53;8.70;99.90
6098;DHT22;3077;50.922;6.584;2023-11-18T11:06:22;8.60;92.90
6098;DHT22;3077;50.922;6.584;2023-11-18T11:08:52;8.70;99.90
6098;DHT22;3077;50.922;6.584;2023-11-18T11:11:22;9.00;81.00
6098;DHT22;3077;50.922;6.584;2023-11-18T11:13:57;8.70;56.60
6098;DHT22;3077;50.922;6.584;2023-11-18T11:16:31;8.70;64.80
6098;DHT22;3077;50.922;6.584;2023-11-18T11:19:04;8.80;55.00
6098;DHT22;3077;50.922;6.584;2023-11-18T11:21:40;8.90;45.00
6098;DHT22;3077;50.922;6.584;2023-11-18T11:24:19;8.90;32.70
6098;DHT22;3077;50.922;6.584;2023-11-18T11:27:25;8.90;22.90
6098;DHT22;3077;50.922;6.584;2023-11-18T11:30:27;9.00;14.80
6098;DHT22;3077;50.922;6.584;2023-11-18T11:33:29;8.80;1.00
6098;DHT22;3077;50.922;6.584;2023-11-18T11:36:02;9.10;1.00
6098;DHT22;3077;50.922;6.584;2023-11-18T11:38:32;9.20;1.00
6098;DHT22;3077;50.922;6.584;2023-11-18T11:40:59;9.20;1.00
6098;DHT22;3077;50.922;6.584;2023-11-18T11:43:27;9.20;1.00
6098;DHT22;3077;50.922;6.584;2023-11-18T11:45:54;9.10;1.00
6098;DHT22;3077;50.922;6.584;2023-11-18T11:48:24;9.10;1.00
6098;DHT22;3077;50.922;6.584;2023-11-18T11:53:24;9.40;1.00
6098;DHT22;3077;50.922;6.584;2023-11-18T11:55:55;9.10;1.00
6098;DHT22;3077;50.922;6.584;2023-11-18T11:58:34;9.10;1.00
6098;DHT22;3077;50.922;6.584;2023-11-18T12:01:25;9.10;1.00
6098;DHT22;3077;50.922;6.584;2023-11-18T12:04:09;9.10;1.00
6098;DHT22;3077;50.922;6.584;2023-11-18T12:06:47;9.10;1.00
6098;DHT22;3077;50.922;6.584;2023-11-18T12:09:16;9.10;1.00
6098;DHT22;3077;50.922;6.584;2023-11-18T12:11:46;9.10;1.00
6098;DHT22;3077;50.922;6.584;2023-11-18T12:14:15;9.10;1.00
6098;DHT22;3077;50.922;6.584;2023-11-18T12:19:38;9.10;1.00
6098;DHT22;3077;50.922;6.584;2023-11-18T12:22:22;9.00;1.00
6098;DHT22;3077;50.922;6.584;2023-11-18T12:27:42;9.30;1.00
6098;DHT22;3077;50.922;6.584;2023-11-18T12:33:00;9.20;1.00
6098;DHT22;3077;50.922;6.584;2023-11-18T12:41:39;9.20;1.00
6098;DHT22;3077;50.922;6.584;2023-11-18T12:46:52;9.40;1.00
6098;DHT22;3077;50.922;6.584;2023-11-18T12:49:19;9.10;1.00
6098;DHT22;3077;50.922;6.584;2023-11-18T12:51:50;9.10;1.00
6098;DHT22;3077;50.922;6.584;2023-11-18T12:54:16;9.00;1.00
6098;DHT22;3077;50.922;6.584;2023-11-18T12:56:44;9.00;1.00
6098;DHT22;3077;50.922;6.584;2023-11-18T12:59:10;9.00;1.00
6098;DHT22;3077;50.922;6.584;2023-11-18T13:01:38;9.00;1.00
6098;DHT22;3077;50.922;6.584;2023-11-18T13:04:07;8.90;1.00
6098;DHT22;3077;50.922;6.584;2023-11-18T13:06:34;8.70;1.00
6098;DHT22;3077;50.922;6.584;2023-11-18T13:09:00;8.80;1.00
6098;DHT22;3077;50.922;6.584;2023-11-18T13:11:31;8.70;7.20
6098;DHT22;3077;50.922;6.584;2023-11-18T13:13:59;8.70;10.30
6098;DHT22;3077;50.922;6.584;2023-11-18T13:16:25;8.70;4.30
6098;DHT22;3077;50.922;6.584;2023-11-18T13:18:51;8.70;16.90
6098;DHT22;3077;50.922;6.584;2023-11-18T13:21:18;9.50;18.60
6098;DHT22;3077;50.922;6.584;2023-11-18T13:23:48;8.40;22.30
6098;DHT22;3077;50.922;6.584;2023-11-18T13:26:16;9.10;26.60
6098;DHT22;3077;50.922;6.584;2023-11-18T13:28:42;8.70;29.20
6098;DHT22;3077;50.922;6.584;2023-11-18T13:31:09;8.40;45.80
6098;DHT22;3077;50.922;6.584;2023-11-18T13:33:38;8.70;87.20
6098;DHT22;3077;50.922;6.584;2023-11-18T13:36:04;8.70;51.70
6098;DHT22;3077;50.922;6.584;2023-11-18T13:38:31;8.60;55.30
6098;DHT22;3077;50.922;6.584;2023-11-18T13:40:57;8.60;60.50
6098;DHT22;3077;50.922;6.584;2023-11-18T13:43:23;8.50;98.90
6098;DHT22;3077;50.922;6.584;2023-11-18T13:45:52;8.60;71.30
6098;DHT22;3077;50.922;6.584;2023-11-18T13:48:18;8.60;72.30
6098;DHT22;3077;50.922;6.584;2023-11-18T13:50:44;8.60;84.80
6098;DHT22;3077;50.922;6.584;2023-11-18T13:53:10;8.50;82.40
6098;DHT22;3077;50.922;6.584;2023-11-18T13:55:36;8.60;93.80
6098;DHT22;3077;50.922;6.584;2023-11-18T13:58:05;8.70;97.00
6098;DHT22;3077;50.922;6.584;2023-11-18T14:00:31;8.60;97.10
6098;DHT22;3077;50.922;6.584;2023-11-18T14:02:58;8.60;99.90
6098;DHT22;3077;50.922;6.584;2023-11-18T14:05:24;8.70;99.90
6098;DHT22;3077;50.922;6.584;2023-11-18T14:07:53;8.70;99.90
6098;DHT22;3077;50.922;6.584;2023-11-18T14:10:22;8.60;99.90
6098;DHT22;3077;50.922;6.584;2023-11-18T14:13:03;8.60;99.90
6098;DHT22;3077;50.922;6.584;2023-11-18T14:15:33;8.50;99.90
6098;DHT22;3077;50.922;6.584;2023-11-18T14:18:03;8.50;99.90
6098;DHT22;3077;50.922;6.584;2023-11-18T14:20:28;8.40;99.90
6098;DHT22;3077;50.922;6.584;2023-11-18T14:22:57;8.40;99.90
6098;DHT22;3077;50.922;6.584;2023-11-18T14:25:23;8.40;99.90
6098;DHT22;3077;50.922;6.584;2023-11-18T14:27:50;8.30;99.90
6098;DHT22;3077;50.922;6.584;2023-11-18T14:30:16;8.40;99.90
6098;DHT22;3077;50.922;6.584;2023-11-18T14:32:43;8.40;99.90
6098;DHT22;3077;50.922;6.584;2023-11-18T14:35:08;8.40;99.90
6098;DHT22;3077;50.922;6.584;2023-11-18T14:37:39;8.40;99.90
6098;DHT22;3077;50.922;6.584;2023-11-18T14:40:14;8.40;99.90
6098;DHT22;3077;50.922;6.584;2023-11-18T14:42:43;8.40;99.90
6098;DHT22;3077;50.922;6.584;2023-11-18T14:45:09;8.20;99.90
6098;DHT22;3077;50.922;6.584;2023-11-18T14:47:36;8.40;99.90
6098;DHT22;3077;50.922;6.584;2023-11-18T14:50:02;8.50;99.90
6098;DHT22;3077;50.922;6.584;2023-11-18T14:52:28;8.30;99.90
6098;DHT22;3077;50.922;6.584;2023-11-18T14:54:54;8.30;99.90
6098;DHT22;3077;50.922;6.584;2023-11-18T14:57:20;8.50;99.90
6098;DHT22;3077;50.922;6.584;2023-11-18T14:59:45;8.30;99.90
6098;DHT22;3077;50.922;6.584;2023-11-18T15:02:11;8.30;99.90
6098;DHT22;3077;50.922;6.584;2023-11-18T15:04:37;8.30;99.90
6098;DHT22;3077;50.922;6.584;2023-11-18T15:07:02;8.20;99.90
6098;DHT22;3077;50.922;6.584;2023-11-18T15:09:28;8.20;99.90
6098;DHT22;3077;50.922;6.584;2023-11-18T15:11:57;8.20;99.90
6098;DHT22;3077;50.922;6.584;2023-11-18T15:14:24;8.20;99.90
6098;DHT22;3077;50.922;6.584;2023-11-18T15:16:52;8.40;99.90
6098;DHT22;3077;50.922;6.584;2023-11-18T15:19:18;8.30;99.90
6098;DHT22;3077;50.922;6.584;2023-11-18T15:21:44;8.30;99.90
6098;DHT22;3077;50.922;6.584;2023-11-18T15:24:11;8.30;99.90
6098;DHT22;3077;50.922;6.584;2023-11-18T15:26:42;8.40;99.90
6098;DHT22;3077;50.922;6.584;2023-11-18T15:29:08;8.30;99.90
6098;DHT22;3077;50.922;6.584;2023-11-18T15:31:40;8.40;99.90
6098;DHT22;3077;50.922;6.584;2023-11-18T15:34:06;8.30;99.90
6098;DHT22;3077;50.922;6.584;2023-11-18T15:36:31;8.40;99.90
6098;DHT22;3077;50.922;6.584;2023-11-18T15:38:57;8.10;99.90
6098;DHT22;3077;50.922;6.584;2023-11-18T15:41:29;8.60;99.90
6098;DHT22;3077;50.922;6.584;2023-11-18T15:43:55;8.60;99.90
6098;DHT22;3077;50.922;6.584;2023-11-18T15:46:21;8.40;99.90
6098;DHT22;3077;50.922;6.584;2023-11-18T15:48:46;8.40;99.90
6098;DHT22;3077;50.922;6.584;2023-11-18T15:51:12;8.40;99.90
6098;DHT22;3077;50.922;6.584;2023-11-18T15:53:41;8.40;99.90
6098;DHT22;3077;50.922;6.584;2023-11-18T15:56:08;8.40;99.90
6098;DHT22;3077;50.922;6.584;2023-11-18T15:58:36;8.40;99.90
6098;DHT22;3077;50.922;6.584;2023-11-18T16:01:03;8.70;99.90
6098;DHT22;3077;50.922;6.584;2023-11-18T16:03:28;8.50;99.90
6098;DHT22;3077;50.922;6.584;2023-11-18T16:05:54;8.40;99.90
6098;DHT22;3077;50.922;6.584;2023-11-18T16:08:20;8.40;99.90
6098;DHT22;3077;50.922;6.584;2023-11-18T16:10:46;8.40;99.90
6098;DHT22;3077;50.922;6.584;2023-11-18T16:13:12;8.40;99.90
6098;DHT22;3077;50.922;6.584;2023-11-18T16:15:38;8.40;99.90
6098;DHT22;3077;50.922;6.584;2023-11-18T16:18:04;8.40;99.90
6098;DHT22;3077;50.922;6.584;2023-11-18T16:20:31;8.50;99.90
6098;DHT22;3077;50.922;6.584;2023-11-18T16:23:00;8.50;99.90
6098;DHT22;3077;50.922;6.584;2023-11-18T16:25:29;8.50;99.90
6098;DHT22;3077;50.922;6.584;2023-11-18T16:27:56;8.40;99.90
6098;DHT22;3077;50.922;6.584;2023-11-18T16:30:24;8.60;99.90
6098;DHT22;3077;50.922;6.584;2023-11-18T16:32:51;8.50;99.90
6098;DHT22;3077;50.922;6.584;2023-11-18T16:35:18;8.50;99.90
6098;DHT22;3077;50.922;6.584;2023-11-18T16:37:43;8.50;99.90
6098;DHT22;3077;50.922;6.584;2023-11-18T16:40:11;8.40;99.90
6098;DHT22;3077;50.922;6.584;2023-11-18T16:42:44;8.60;99.90
6098;DHT22;3077;50.922;6.584;2023-11-18T16:45:10;8.60;99.90
6098;DHT22;3077;50.922;6.584;2023-11-18T16:47:37;8.60;99.90
6098;DHT22;3077;50.922;6.584;2023-11-18T16:50:05;8.70;99.90
6098;DHT22;3077;50.922;6.584;2023-11-18T16:52:31;8.60;99.90
6098;DHT22;3077;50.922;6.584;2023-11-18T16:54:57;8.60;99.90
6098;DHT22;3077;50.922;6.584;2023-11-18T16:57:22;8.60;99.90
6098;DHT22;3077;50.922;6.584;2023-11-18T16:59:49;8.60;99.90
6098;DHT22;3077;50.922;6.584;2023-11-18T17:02:15;8.70;99.90
6098;DHT22;3077;50.922;6.584;2023-11-18T17:04:41;8.70;99.90
6098;DHT22;3077;50.922;6.584;2023-11-18T17:07:06;8.70;99.90
6098;DHT22;3077;50.922;6.584;2023-11-18T17:09:32;8.70;99.90
6098;DHT22;3077;50.922;6.584;2023-11-18T17:11:58;8.70;99.90
6098;DHT22;3077;50.922;6.584;2023-11-18T17:14:23;8.80;99.90
6098;DHT22;3077;50.922;6.584;2023-11-18T17:16:49;8.90;99.90
6098;DHT22;3077;50.922;6.584;2023-11-18T17:19:14;9.00;99.90
6098;DHT22;3077;50.922;6.584;2023-11-18T17:21:40;8.80;99.90
6098;DHT22;3077;50.922;6.584;2023-11-18T17:24:06;8.80;99.90
6098;DHT22;3077;50.922;6.584;2023-11-18T17:26:36;8.80;99.90
6098;DHT22;3077;50.922;6.584;2023-11-18T17:29:08;8.90;99.90
6098;DHT22;3077;50.922;6.584;2023-11-18T17:31:34;8.90;99.90
6098;DHT22;3077;50.922;6.584;2023-11-18T17:34:00;8.90;99.90
6098;DHT22;3077;50.922;6.584;2023-11-18T17:36:26;8.90;99.90
6098;DHT22;3077;50.922;6.584;2023-11-18T17:38:53;8.90;99.90
6098;DHT22;3077;50.922;6.584;2023-11-18T17:41:19;9.00;99.90
6098;DHT22;3077;50.922;6.584;2023-11-18T17:43:48;9.00;99.90
6098;DHT22;3077;50.922;6.584;2023-11-18T17:46:14;9.10;99.90
6098;DHT22;3077;50.922;6.584;2023-11-18T17:48:39;9.10;99.90
6098;DHT22;3077;50.922;6.584;2023-11-18T17:51:07;9.00;99.90
6098;DHT22;3077;50.922;6.584;2023-11-18T17:53:32;9.20;99.90
6098;DHT22;3077;50.922;6.584;2023-11-18T17:55:58;9.20;99.90
6098;DHT22;3077;50.922;6.584;2023-11-18T17:58:24;9.20;99.90
6098;DHT22;3077;50.922;6.584;2023-11-18T18:00:50;9.30;99.90